Time;durP1;ratioP1;P1;durP2;ratioP2;P2;SDS_P1;SDS_P2;PMS_P1;PMS_P2;Temp;Humidity;BMP_temperature;BMP_pressure;BME280_temperature;BME280_humidity;BME280_pressure;Samples;Min_cycle;Max_cycle;Signal;HPM_P1;HPM_P2
2023/07/14 00:01:54;;;;;;;2.50;0.55;;;23.50;99.90;;;;;;5134700;27;20038;-57
2023/07/14 00:04:34;;;;;;;0.95;0.57;;;23.50;99.90;;;;;;5134046;27;20019;-55
2023/07/14 00:07:01;;;;;;;0.95;0.40;;;23.60;99.90;;;;;;5133824;27;20114;-54
2023/07/14 00:09:29;;;;;;;1.73;0.68;;;23.70;99.90;;;;;;5115110;28;20154;-56
2023/07/14 00:11:55;;;;;;;3.47;0.70;;;23.60;99.90;;;;;;5134267;27;20023;-55
2023/07/14 00:14:21;;;;;;;4.25;1.02;;;23.70;99.90;;;;;;5134096;27;20038;-54
2023/07/14 00:16:46;;;;;;;2.63;0.55;;;23.80;99.90;;;;;;5134401;27;20459;-56
2023/07/14 00:19:14;;;;;;;1.35;0.50;;;23.70;99.90;;;;;;5133841;27;20069;-56
2023/07/14 00:21:40;;;;;;;0.73;0.50;;;23.40;99.90;;;;;;5134358;27;20375;-53
2023/07/14 00:24:16;;;;;;;0.47;0.35;;;23.50;99.90;;;;;;5134107;27;20020;-56
2023/07/14 00:26:44;;;;;;;3.22;0.85;;;23.30;99.90;;;;;;5133859;27;20084;-54
2023/07/14 00:29:37;;;;;;;3.38;0.93;;;22.90;99.90;;;;;;5133754;27;20107;-53
2023/07/14 00:32:15;;;;;;;5.28;0.85;;;22.90;99.90;;;;;;5076906;28;20054;-52
2023/07/14 00:34:41;;;;;;;2.08;0.73;;;23.20;99.90;;;;;;5053640;28;20127;-56
2023/07/14 00:37:08;;;;;;;1.27;0.80;;;23.40;99.90;;;;;;5070483;28;20392;-56
2023/07/14 00:39:33;;;;;;;3.90;0.77;;;23.60;99.90;;;;;;5070671;28;20040;-54
2023/07/14 00:42:00;;;;;;;0.80;0.70;;;23.60;99.90;;;;;;5070732;28;20039;-53
2023/07/14 00:44:27;;;;;;;2.75;0.82;;;23.70;99.90;;;;;;5070052;28;20541;-52
2023/07/14 00:46:52;;;;;;;4.38;0.73;;;23.60;99.90;;;;;;5070671;28;20128;-55
2023/07/14 00:49:34;;;;;;;4.43;0.85;;;23.70;99.90;;;;;;5070184;28;20563;-54
2023/07/14 00:52:05;;;;;;;1.17;0.80;;;23.70;99.90;;;;;;5070685;28;20379;-57
2023/07/14 00:54:31;;;;;;;1.15;0.65;;;23.60;99.90;;;;;;5071012;28;20058;-53
2023/07/14 00:56:57;;;;;;;1.40;0.55;;;23.60;99.90;;;;;;5074547;28;20111;-53
2023/07/14 00:59:33;;;;;;;1.42;0.88;;;23.40;99.90;;;;;;5073942;28;20040;-57
2023/07/14 01:02:11;;;;;;;0.55;0.55;;;;;;;;;;5073996;28;20072;-56
2023/07/14 01:04:52;;;;;;;1.40;0.90;;;22.30;99.90;;;;;;5074187;28;20067;-54
2023/07/14 01:07:23;;;;;;;2.90;0.63;;;22.00;99.90;;;;;;5073756;28;20032;-55
2023/07/14 01:09:51;;;;;;;1.13;0.80;;;21.90;99.90;;;;;;5091360;28;20039;-53
2023/07/14 01:12:21;;;;;;;2.00;0.85;;;22.30;99.90;;;;;;5118823;27;20522;-52
2023/07/14 01:14:50;;;;;;;0.88;0.50;;;22.20;99.90;;;;;;5137361;27;20027;-56
2023/07/14 01:17:16;;;;;;;1.30;0.70;;;22.10;99.90;;;;;;5137185;27;20027;-55
2023/07/14 01:19:48;;;;;;;0.88;0.70;;;22.30;99.90;;;;;;5137655;27;20054;-54
2023/07/14 01:22:41;;;;;;;1.20;0.80;;;22.20;99.90;;;;;;5137065;27;20020;-53
2023/07/14 01:25:18;;;;;;;2.25;0.88;;;22.20;99.90;;;;;;5137053;27;20055;-56
2023/07/14 01:27:46;;;;;;;1.17;0.60;;;22.50;99.90;;;;;;5137156;27;20027;-53
2023/07/14 01:30:12;;;;;;;1.95;0.73;;;22.70;99.90;;;;;;5137011;27;20027;-56
2023/07/14 01:32:42;;;;;;;0.98;0.75;;;22.80;99.90;;;;;;5136892;27;20038;-53
2023/07/14 01:35:09;;;;;;;1.98;0.68;;;22.90;99.90;;;;;;5137233;27;20035;-55
2023/07/14 01:37:37;;;;;;;2.22;1.60;;;23.00;99.90;;;;;;5137001;27;20484;-56
2023/07/14 01:40:11;;;;;;;0.90;0.65;;;23.10;99.90;;;;;;5136757;27;20535;-56
2023/07/14 01:42:38;;;;;;;2.45;0.80;;;23.00;99.90;;;;;;5136837;27;20049;-54
2023/07/14 01:45:09;;;;;;;1.63;0.63;;;22.80;99.90;;;;;;5136923;27;20040;-55
2023/07/14 01:47:36;;;;;;;1.07;0.63;;;22.60;99.90;;;;;;5134914;27;20609;-56
2023/07/14 01:50:03;;;;;;;5.10;0.77;;;22.50;99.90;;;;;;5136799;27;20027;-56
2023/07/14 01:52:31;;;;;;;1.77;1.08;;;22.50;99.90;;;;;;5134448;27;20508;-54
2023/07/14 01:55:04;;;;;;;1.60;0.60;;;22.50;99.90;;;;;;5134481;27;20046;-56
2023/07/14 01:57:32;;;;;;;2.00;0.80;;;22.50;99.90;;;;;;5116960;27;20042;-53
2023/07/14 02:00:04;;;;;;;1.65;0.52;;;22.40;99.90;;;;;;5136907;27;20038;-56
2023/07/14 02:02:33;;;;;;;2.88;0.80;;;22.50;99.90;;;;;;5136389;27;20035;-56
2023/07/14 02:05:05;;;;;;;2.15;0.80;;;22.70;99.90;;;;;;5136314;27;20035;-55
2023/07/14 02:07:31;;;;;;;3.30;0.90;;;22.90;99.90;;;;;;5135680;27;20371;-52
2023/07/14 02:09:57;;;;;;;1.38;0.70;;;23.00;99.90;;;;;;5136331;27;20080;-54
2023/07/14 02:12:31;;;;;;;2.05;0.82;;;23.00;99.90;;;;;;5136222;27;20019;-56
2023/07/14 02:15:07;;;;;;;3.58;0.90;;;23.00;99.90;;;;;;5136553;27;20031;-54
2023/07/14 02:17:35;;;;;;;1.02;0.80;;;23.10;99.90;;;;;;5066587;27;20054;-56
2023/07/14 02:20:10;;;;;;;4.35;0.90;;;23.10;99.90;;;;;;5136286;27;20038;-55
2023/07/14 02:22:37;;;;;;;4.25;1.15;;;23.10;99.90;;;;;;5076518;28;20403;-54
2023/07/14 02:25:07;;;;;;;2.53;0.80;;;23.10;99.90;;;;;;5092930;28;20123;-56
2023/07/14 02:27:33;;;;;;;1.67;0.68;;;23.10;99.90;;;;;;5043352;28;20122;-54
2023/07/14 02:30:14;;;;;;;1.02;0.73;;;23.10;99.90;;;;;;5092877;28;20424;-56
2023/07/14 02:32:44;;;;;;;1.30;0.87;;;22.90;99.90;;;;;;5038900;28;20032;-52
2023/07/14 02:35:19;;;;;;;0.65;0.65;;;22.60;99.90;;;;;;5072333;28;20604;-56
2023/07/14 02:38:03;;;;;;;1.45;1.00;;;22.50;99.90;;;;;;5023946;28;20071;-53
2023/07/14 02:40:32;;;;;;;2.63;0.80;;;22.50;99.90;;;;;;5072251;28;20496;-56
2023/07/14 02:42:58;;;;;;;1.95;0.90;;;22.40;99.90;;;;;;5071767;28;20476;-55
2023/07/14 02:45:26;;;;;;;3.47;0.88;;;22.40;99.90;;;;;;5072143;28;20036;-55
2023/07/14 02:47:55;;;;;;;1.88;0.98;;;22.40;99.90;;;;;;5072049;28;20612;-56
2023/07/14 02:50:21;;;;;;;1.25;0.90;;;22.50;99.90;;;;;;5071976;28;20020;-56
2023/07/14 02:52:47;;;;;;;2.22;0.75;;;22.50;99.90;;;;;;5055053;28;20606;-55
2023/07/14 02:55:13;;;;;;;1.15;0.85;;;22.40;99.90;;;;;;5072110;28;20565;-55
2023/07/14 02:57:39;;;;;;;1.15;0.80;;;22.40;99.90;;;;;;5071934;28;20041;-53
2023/07/14 03:00:08;;;;;;;2.58;1.00;;;22.40;99.90;;;;;;5093798;28;20031;-54
2023/07/14 03:02:34;;;;;;;2.30;1.08;;;22.30;99.90;;;;;;5097698;27;20035;-53
2023/07/14 03:04:59;;;;;;;4.35;1.20;;;22.40;99.90;;;;;;5135122;27;20023;-53
2023/07/14 03:07:25;;;;;;;1.70;1.23;;;22.50;99.90;;;;;;5135039;27;20027;-57
2023/07/14 03:09:51;;;;;;;4.65;1.20;;;22.50;99.90;;;;;;5135012;27;20027;-56
2023/07/14 03:12:18;;;;;;;4.57;0.90;;;22.60;99.90;;;;;;5135017;27;20055;-54
2023/07/14 03:14:43;;;;;;;4.85;1.15;;;22.60;99.90;;;;;;5135052;27;20482;-53
2023/07/14 03:17:09;;;;;;;4.57;1.00;;;22.50;99.90;;;;;;5134803;27;20058;-55
2023/07/14 03:19:35;;;;;;;1.38;0.93;;;22.50;99.90;;;;;;5135196;27;20412;-54
2023/07/14 03:22:01;;;;;;;1.15;0.82;;;22.40;99.90;;;;;;5134680;27;20055;-56
2023/07/14 03:24:26;;;;;;;3.22;1.08;;;22.30;99.90;;;;;;5135041;27;20441;-55
2023/07/14 03:26:52;;;;;;;2.88;1.08;;;22.30;99.90;;;;;;5134787;27;20031;-54
2023/07/14 03:29:18;;;;;;;1.58;0.90;;;22.20;99.90;;;;;;5134673;27;20378;-53
2023/07/14 03:31:43;;;;;;;7.85;1.33;;;22.20;99.90;;;;;;5134779;27;20458;-53
2023/07/14 03:34:10;;;;;;;3.35;1.30;;;21.90;99.90;;;;;;5132500;27;20087;-52
2023/07/14 03:36:37;;;;;;;2.38;0.75;;;;;;;;;;5134817;27;20027;-54
2023/07/14 03:39:27;;;;;;;3.47;0.95;;;21.60;99.90;;;;;;5134392;27;20138;-54
2023/07/14 03:41:54;;;;;;;3.17;0.93;;;21.70;99.90;;;;;;5134777;27;20026;-56
2023/07/14 03:44:20;;;;;;;3.80;0.98;;;21.70;99.90;;;;;;5134321;27;20027;-54
2023/07/14 03:46:46;;;;;;;3.45;1.30;;;21.50;99.90;;;;;;5134500;27;20034;-53
2023/07/14 03:49:13;;;;;;;1.27;0.80;;;21.60;99.90;;;;;;5134151;27;20483;-56
2023/07/14 03:51:39;;;;;;;3.90;1.55;;;21.70;99.90;;;;;;5134711;27;20471;-54
2023/07/14 03:54:05;;;;;;;1.52;0.90;;;21.90;99.90;;;;;;5133893;27;20047;-53
2023/07/14 03:56:30;;;;;;;2.33;1.05;;;21.80;99.90;;;;;;5115341;27;20038;-57
2023/07/14 03:58:57;;;;;;;2.30;1.15;;;;;;;;;;5134210;27;20043;-56
2023/07/14 04:01:25;;;;;;;4.72;1.25;;;21.50;99.90;;;;;;5134498;27;20098;-55
2023/07/14 04:03:51;;;;;;;3.20;1.20;;;21.50;99.90;;;;;;5134078;27;20466;-55
2023/07/14 04:06:17;;;;;;;4.20;1.20;;;21.70;99.90;;;;;;5133514;27;20035;-56
2023/07/14 04:08:44;;;;;;;2.65;1.55;;;21.80;99.90;;;;;;5134109;28;20038;-57
2023/07/14 04:11:11;;;;;;;3.63;1.45;;;22.00;99.90;;;;;;5133566;27;20038;-54
2023/07/14 04:13:37;;;;;;;2.17;1.20;;;22.10;99.90;;;;;;5111249;28;20028;-53
2023/07/14 04:16:04;;;;;;;1.20;0.80;;;21.90;99.90;;;;;;5110784;28;20537;-55
2023/07/14 04:18:31;;;;;;;2.45;1.10;;;21.80;99.90;;;;;;5109305;28;20077;-53
2023/07/14 04:21:07;;;;;;;4.28;1.60;;;22.00;99.90;;;;;;5110815;28;20052;-55
2023/07/14 04:23:33;;;;;;;3.03;1.20;;;22.00;99.90;;;;;;5110612;28;20036;-55
2023/07/14 04:26:00;;;;;;;3.45;1.27;;;22.00;99.90;;;;;;5073365;28;20555;-55
2023/07/14 04:28:26;;;;;;;2.75;1.35;;;22.10;99.90;;;;;;5109554;28;20040;-52
2023/07/14 04:30:53;;;;;;;4.32;1.65;;;22.20;99.90;;;;;;5079897;28;20074;-55
2023/07/14 04:33:19;;;;;;;2.95;1.58;;;22.10;99.90;;;;;;5111896;28;20043;-54
2023/07/14 04:35:44;;;;;;;1.73;1.30;;;22.10;99.90;;;;;;5114635;28;20039;-54
2023/07/14 04:38:10;;;;;;;2.45;1.75;;;21.90;99.90;;;;;;5114632;28;20026;-53
2023/07/14 04:40:40;;;;;;;2.25;1.25;;;21.90;99.90;;;;;;5114900;28;20027;-56
2023/07/14 04:43:06;;;;;;;1.70;1.10;;;22.00;99.90;;;;;;5113753;28;20028;-55
2023/07/14 04:45:40;;;;;;;3.35;1.40;;;21.90;99.90;;;;;;5110308;27;20088;-55
2023/07/14 04:48:12;;;;;;;1.80;1.30;;;22.00;99.90;;;;;;5137230;27;20093;-56
2023/07/14 04:50:38;;;;;;;2.08;1.10;;;22.10;99.90;;;;;;5137260;27;20404;-53
2023/07/14 04:53:07;;;;;;;3.53;1.52;;;22.20;99.90;;;;;;5134201;27;20064;-53
2023/07/14 04:55:37;;;;;;;4.13;1.30;;;22.10;99.90;;;;;;5126873;27;20027;-56
2023/07/14 04:58:04;;;;;;;11.00;2.42;;;22.10;99.90;;;;;;5136551;27;20050;-53
2023/07/14 05:00:31;;;;;;;2.60;1.48;;;22.20;99.90;;;;;;5137495;27;20039;-55
2023/07/14 05:02:57;;;;;;;4.20;1.10;;;22.40;99.90;;;;;;5137497;27;20069;-54
2023/07/14 05:05:24;;;;;;;4.03;1.30;;;22.40;99.90;;;;;;5137260;27;20035;-53
2023/07/14 05:07:52;;;;;;;3.15;1.20;;;22.50;99.90;;;;;;5137391;27;20118;-54
2023/07/14 05:10:19;;;;;;;2.75;1.33;;;22.60;99.90;;;;;;5137096;27;20478;-56
2023/07/14 05:12:45;;;;;;;3.45;1.20;;;22.60;99.90;;;;;;5137622;27;20137;-53
2023/07/14 05:15:12;;;;;;;2.60;1.45;;;22.60;99.90;;;;;;5137768;27;20039;-55
2023/07/14 05:17:39;;;;;;;1.50;1.10;;;22.40;99.90;;;;;;5137562;27;20088;-53
2023/07/14 05:20:06;;;;;;;3.50;1.35;;;22.40;99.90;;;;;;5135433;27;20039;-55
2023/07/14 05:22:33;;;;;;;3.63;1.60;;;22.70;99.90;;;;;;5135007;27;20069;-57
2023/07/14 05:24:58;;;;;;;5.05;1.60;;;22.80;99.90;;;;;;5136097;27;20074;-56
2023/07/14 05:27:24;;;;;;;2.38;1.40;;;23.90;99.90;;;;;;5134925;27;20063;-56
2023/07/14 05:29:50;;;;;;;3.63;2.35;;;23.10;99.90;;;;;;5136477;27;20477;-55
2023/07/14 05:32:17;;;;;;;3.17;1.92;;;;;;;;;;5117122;27;20043;-54
2023/07/14 05:34:43;;;;;;;2.83;1.90;;;;;;;;;;5133682;27;20070;-54
2023/07/14 05:37:09;;;;;;;3.63;1.70;;;;;;;;;;5116214;27;20042;-54
2023/07/14 05:39:35;;;;;;;2.10;1.20;;;23.50;99.90;;;;;;5134571;27;20083;-55
2023/07/14 05:42:03;;;;;;;1.25;1.10;;;23.60;99.90;;;;;;5133338;27;20039;-56
2023/07/14 05:44:30;;;;;;;1.08;0.73;;;23.90;99.90;;;;;;5136540;27;20042;-56
2023/07/14 05:46:56;;;;;;;1.98;1.42;;;23.50;99.90;;;;;;5136974;27;20035;-55
2023/07/14 05:49:22;;;;;;;1.40;1.00;;;23.70;99.90;;;;;;5136624;27;20032;-55
2023/07/14 05:51:49;;;;;;;1.67;1.00;;;23.40;99.90;;;;;;5136664;27;20117;-55
2023/07/14 05:54:15;;;;;;;5.20;1.10;;;23.50;99.90;;;;;;5136677;27;20065;-55
2023/07/14 05:56:41;;;;;;;2.33;1.42;;;23.50;99.90;;;;;;5134791;27;20456;-56
2023/07/14 05:59:07;;;;;;;3.08;1.60;;;23.50;99.90;;;;;;5134782;27;20047;-55
2023/07/14 06:01:32;;;;;;;3.22;1.40;;;23.60;99.90;;;;;;5136585;27;20477;-55
2023/07/14 06:03:59;;;;;;;2.55;1.20;;;23.90;99.90;;;;;;5135115;27;20043;-55
2023/07/14 06:06:26;;;;;;;1.23;0.98;;;;;;;;;;5136270;27;20043;-55
2023/07/14 06:08:54;;;;;;;5.07;1.35;;;23.80;99.90;;;;;;5136418;27;20057;-55
2023/07/14 06:11:20;;;;;;;1.77;1.23;;;23.90;99.90;;;;;;5136735;27;20035;-55
2023/07/14 06:13:46;;;;;;;1.27;1.10;;;24.00;99.90;;;;;;5136136;27;20507;-55
2023/07/14 06:16:11;;;;;;;1.73;1.00;;;24.00;99.90;;;;;;5135710;27;20035;-55
2023/07/14 06:18:37;;;;;;;3.47;1.20;;;24.20;99.90;;;;;;5136503;27;20031;-55
2023/07/14 06:21:03;;;;;;;1.30;1.10;;;24.30;99.90;;;;;;5136263;27;20466;-55
2023/07/14 06:23:29;;;;;;;3.92;1.02;;;24.40;99.90;;;;;;5136000;27;20103;-55
2023/07/14 06:25:57;;;;;;;1.70;0.98;;;24.20;99.90;;;;;;5135977;27;20047;-56
2023/07/14 06:28:24;;;;;;;1.48;1.02;;;24.40;99.90;;;;;;5136329;27;20031;-56
2023/07/14 06:30:56;;;;;;;1.70;1.10;;;24.30;99.90;;;;;;5135819;27;20478;-55
2023/07/14 06:33:22;;;;;;;1.52;1.13;;;24.40;99.90;;;;;;5136046;27;20042;-55
2023/07/14 06:35:48;;;;;;;1.67;1.20;;;24.60;99.90;;;;;;5134549;27;20482;-55
2023/07/14 06:38:14;;;;;;;1.70;1.13;;;24.50;99.90;;;;;;5135717;27;20031;-55
2023/07/14 06:40:40;;;;;;;3.05;1.20;;;24.50;99.90;;;;;;5135633;27;20393;-55
2023/07/14 06:43:07;;;;;;;2.58;1.38;;;24.90;99.90;;;;;;5136172;27;20035;-55
2023/07/14 06:45:33;;;;;;;1.83;1.13;;;24.80;99.90;;;;;;5135668;27;20482;-54
2023/07/14 06:47:59;;;;;;;1.33;1.23;;;25.00;99.90;;;;;;5133490;27;20050;-54
2023/07/14 06:50:25;;;;;;;1.77;1.52;;;24.80;99.90;;;;;;5135985;27;20059;-55
2023/07/14 06:52:51;;;;;;;4.00;1.48;;;24.90;99.90;;;;;;5135120;27;20035;-55
2023/07/14 06:55:17;;;;;;;2.10;1.80;;;25.00;99.90;;;;;;5135206;27;20126;-55
2023/07/14 06:57:43;;;;;;;3.95;2.65;;;25.10;99.90;;;;;;5135408;27;20542;-57
2023/07/14 07:00:12;;;;;;;2.83;1.70;;;25.20;99.90;;;;;;5135362;27;20031;-56
2023/07/14 07:02:39;;;;;;;4.63;1.88;;;25.10;99.90;;;;;;5116553;27;20095;-55
2023/07/14 07:05:06;;;;;;;3.75;1.65;;;;;;;;;;5135116;27;20110;-55
2023/07/14 07:07:33;;;;;;;3.17;1.60;;;;;;;;;;5135003;27;20070;-55
2023/07/14 07:09:59;;;;;;;3.03;1.77;;;;;;;;;;5135476;27;20039;-55
2023/07/14 07:12:25;;;;;;;2.15;1.73;;;;;;;;;;5135346;27;20027;-55
2023/07/14 07:14:51;;;;;;;2.72;1.60;;;25.50;99.90;;;;;;5134957;27;20035;-55
2023/07/14 07:17:17;;;;;;;2.00;1.67;;;25.60;99.90;;;;;;5134904;27;20123;-55
2023/07/14 07:19:43;;;;;;;1.73;1.33;;;;;;;;;;5134971;27;20501;-54
2023/07/14 07:22:09;;;;;;;1.58;1.35;;;;;;;;;;5134823;27;20031;-54
2023/07/14 07:24:36;;;;;;;1.38;1.27;;;;;;;;;;5135099;27;20067;-54
2023/07/14 07:27:02;;;;;;;2.22;1.60;;;;;;;;;;5134632;27;20385;-54
2023/07/14 07:29:30;;;;;;;8.65;1.90;;;;;;;;;;5135134;27;20022;-54
2023/07/14 07:31:56;;;;;;;5.90;1.67;;;;;;;;;;5134714;27;20058;-54
2023/07/14 07:34:22;;;;;;;3.25;1.75;;;;;;;;;;5134760;27;20427;-54
2023/07/14 07:36:49;;;;;;;2.55;1.52;;;;;;;;;;5132764;27;20136;-54
2023/07/14 07:39:15;;;;;;;2.90;1.58;;;;;;;;;;5133909;27;20039;-54
2023/07/14 07:41:41;;;;;;;2.33;1.60;;;;;;;;;;5134906;27;20039;-54
2023/07/14 07:44:08;;;;;;;1.85;1.40;;;26.20;99.90;;;;;;5134969;27;20113;-54
2023/07/14 07:46:35;;;;;;;1.63;1.40;;;26.10;99.90;;;;;;5134687;27;20039;-54
2023/07/14 07:49:01;;;;;;;1.52;1.13;;;26.20;99.90;;;;;;5134312;27;20378;-54
2023/07/14 07:51:28;;;;;;;2.00;1.25;;;26.40;99.90;;;;;;5134602;27;20034;-54
2023/07/14 07:53:54;;;;;;;3.00;1.50;;;;;;;;;;5134248;27;20058;-54
2023/07/14 07:56:20;;;;;;;2.03;1.50;;;;;;;;;;5134309;27;20031;-54
2023/07/14 07:58:46;;;;;;;1.45;1.20;;;;;;;;;;5134357;27;20133;-54
2023/07/14 08:01:20;;;;;;;3.38;1.70;;;;;;;;;;5132089;27;20068;-54
2023/07/14 08:03:46;;;;;;;2.78;1.80;;;27.20;99.90;;;;;;5125301;27;20027;-54
2023/07/14 08:06:13;;;;;;;2.30;1.48;;;27.20;99.90;;;;;;5113280;28;20069;-60
2023/07/14 08:08:39;;;;;;;3.25;1.92;;;27.30;99.90;;;;;;5134173;27;20046;-58
2023/07/14 08:11:10;;;;;;;2.15;1.52;;;;;;;;;;5134099;27;20023;-59
2023/07/14 08:13:36;;;;;;;3.03;1.33;;;;;;;;;;5133701;28;20118;-58
2023/07/14 08:16:02;;;;;;;2.72;1.48;;;;;;;;;;5134208;28;20027;-59
2023/07/14 08:18:29;;;;;;;2.63;1.50;;;27.70;99.90;;;;;;5130917;28;20376;-61
2023/07/14 08:20:55;;;;;;;1.88;1.40;;;27.50;99.90;;;;;;5134288;28;20037;-57
2023/07/14 08:23:23;;;;;;;2.92;1.60;;;27.60;99.90;;;;;;5134242;28;20035;-60
2023/07/14 08:25:59;;;;;;;3.42;1.90;;;27.50;99.90;;;;;;5133832;28;20058;-57
2023/07/14 08:28:26;;;;;;;2.67;1.90;;;27.40;99.90;;;;;;5133680;28;20107;-58
2023/07/14 08:30:54;;;;;;;3.08;2.08;;;;;;;;;;5134250;28;20049;-57
2023/07/14 08:33:21;;;;;;;3.03;1.58;;;27.70;99.90;;;;;;5133920;28;20031;-58
2023/07/14 08:35:51;;;;;;;2.67;1.80;;;;;;;;;;5133875;27;20521;-56
2023/07/14 08:38:17;;;;;;;2.00;1.63;;;;;;;;;;5133135;28;20109;-58
2023/07/14 08:41:09;;;;;;;1.98;1.70;;;;;;;;;;5133158;28;20490;-57
2023/07/14 08:43:35;;;;;;;1.70;1.35;;;;;;;;;;5069657;28;20051;-59
2023/07/14 08:46:16;;;;;;;1.70;1.10;;;;;;;;;;5069210;28;20494;-57
2023/07/14 08:48:48;;;;;;;3.35;1.70;;;;;;;;;;5068952;28;20516;-58
2023/07/14 08:51:26;;;;;;;2.17;1.33;;;;;;;;;;5070027;28;20032;-57
2023/07/14 08:53:57;;;;;;;3.70;1.48;;;28.60;99.90;;;;;;5060633;28;20103;-58
2023/07/14 08:56:23;;;;;;;2.05;1.40;;;28.50;99.90;;;;;;5050321;28;20459;-60
2023/07/14 08:58:51;;;;;;;2.75;1.20;;;;;;;;;;5049679;28;20115;-57
2023/07/14 09:01:25;;;;;;;3.28;1.50;;;;;;;;;;5050251;28;20072;-58
2023/07/14 09:03:52;;;;;;;3.50;1.40;;;;;;;;;;5050323;28;20120;-59
2023/07/14 09:06:26;;;;;;;1.73;1.23;;;;;;;;;;5049771;28;20132;-59
2023/07/14 09:08:53;;;;;;;4.05;2.13;;;;;;;;;;5031465;28;20034;-59
2023/07/14 09:11:28;;;;;;;3.67;1.60;;;;;;;;;;5033933;28;20037;-59
2023/07/14 09:14:03;;;;;;;4.40;1.58;;;;;;;;;;5030162;28;20072;-58
2023/07/14 09:16:32;;;;;;;1.75;1.17;;;;;;;;;;5032135;28;20092;-57
2023/07/14 09:19:06;;;;;;;2.63;1.58;;;;;;;;;;5034070;28;20482;-59
2023/07/14 09:21:40;;;;;;;3.55;1.40;;;;;;;;;;5095445;28;20091;-59
2023/07/14 09:24:12;;;;;;;3.35;1.55;;;;;;;;;;5096258;28;20035;-60
2023/07/14 09:26:41;;;;;;;2.22;1.65;;;;;;;;;;5095910;28;20042;-58
2023/07/14 09:29:16;;;;;;;2.72;1.70;;;;;;;;;;5096340;28;20024;-58
2023/07/14 09:31:48;;;;;;;2.00;1.60;;;;;;;;;;5096062;28;20065;-59
2023/07/14 09:34:23;;;;;;;5.20;2.13;;;;;;;;;;5108871;28;20032;-60
2023/07/14 09:36:50;;;;;;;2.33;1.38;;;;;;;;;;5114569;28;20061;-58
2023/07/14 09:39:30;;;;;;;2.92;1.45;;;;;;;;;;5114505;28;20544;-59
2023/07/14 09:41:57;;;;;;;3.28;1.60;;;;;;;;;;5114464;28;20042;-57
2023/07/14 09:44:24;;;;;;;2.78;1.70;;;;;;;;;;5114686;28;20015;-60
2023/07/14 09:46:51;;;;;;;4.95;1.60;;;;;;;;;;5114749;28;20057;-58
2023/07/14 09:49:23;;;;;;;2.63;1.33;;;;;;;;;;5131397;27;20035;-58
2023/07/14 09:52:08;;;;;;;3.15;2.00;;;;;;;;;;5116257;28;20069;-60
2023/07/14 09:54:34;;;;;;;5.28;1.40;;;;;;;;;;5131473;27;20432;-60
2023/07/14 09:57:03;;;;;;;2.78;1.38;;;;;;;;;;5117308;27;20061;-60
2023/07/14 09:59:29;;;;;;;3.20;1.60;;;;;;;;;;5134405;27;20423;-58
2023/07/14 10:01:57;;;;;;;2.80;1.90;;;;;;;;;;5136496;27;20055;-59
2023/07/14 10:04:28;;;;;;;2.80;1.58;;;31.40;99.90;;;;;;5134647;27;20079;-59
2023/07/14 10:06:54;;;;;;;2.65;1.67;;;31.40;99.90;;;;;;5136159;27;20493;-58
2023/07/14 10:09:22;;;;;;;2.50;1.67;;;31.70;99.90;;;;;;5135105;27;20027;-58
2023/07/14 10:11:54;;;;;;;2.58;1.77;;;;;;;;;;5135743;27;20028;-58
2023/07/14 10:14:20;;;;;;;3.17;1.80;;;32.10;99.90;;;;;;5136281;27;20031;-58
2023/07/14 10:16:47;;;;;;;2.92;1.65;;;32.00;99.90;;;;;;5135818;27;20035;-59
2023/07/14 10:19:21;;;;;;;1.98;1.77;;;31.70;99.90;;;;;;5136341;27;20083;-59
2023/07/14 10:21:59;;;;;;;2.78;1.83;;;31.80;99.90;;;;;;5135968;27;20019;-57
2023/07/14 10:24:26;;;;;;;3.70;1.80;;;;;;;;;;5135830;27;20029;-59
2023/07/14 10:26:57;;;;;;;4.07;1.55;;;32.20;99.90;;;;;;5135656;27;20042;-58
2023/07/14 10:29:25;;;;;;;3.30;1.50;;;;;;;;;;5134808;27;20106;-59
2023/07/14 10:32:31;;;;;;;2.88;1.50;;;32.90;99.90;;;;;;5134550;27;20041;-58
2023/07/14 10:35:09;;;;;;;1.95;1.50;;;;;;;;;;5096156;28;20044;-58
2023/07/14 10:37:41;;;;;;;1.65;1.50;;;;;;;;;;5123048;27;20559;-59
2023/07/14 10:40:14;;;;;;;2.17;1.48;;;33.30;99.90;;;;;;5131970;27;20031;-57
2023/07/14 10:43:05;;;;;;;4.57;1.50;;;33.20;99.90;;;;;;5134596;27;20390;-58
2023/07/14 10:45:34;;;;;;;3.55;1.60;;;33.30;99.90;;;;;;5128154;27;20050;-60
2023/07/14 10:48:05;;;;;;;2.60;1.45;;;33.50;99.90;;;;;;5135362;27;20039;-60
2023/07/14 10:50:38;;;;;;;4.10;1.20;;;33.70;99.90;;;;;;5135826;27;20068;-59
2023/07/14 10:53:20;;;;;;;3.25;1.52;;;33.90;99.90;;;;;;5135138;27;20123;-58
2023/07/14 10:55:49;;;;;;;2.17;1.33;;;33.50;99.90;;;;;;5133829;27;20023;-58
2023/07/14 10:58:33;;;;;;;2.53;1.50;;;33.50;99.90;;;;;;5135152;27;20034;-58
2023/07/14 11:01:03;;;;;;;3.28;1.52;;;34.00;99.90;;;;;;5135286;27;20035;-59
2023/07/14 11:03:32;;;;;;;3.38;1.40;;;33.90;99.90;;;;;;5135259;27;20027;-58
2023/07/14 11:06:00;;;;;;;2.67;1.80;;;34.20;99.90;;;;;;5134885;27;20023;-57
2023/07/14 11:08:28;;;;;;;3.50;1.50;;;34.10;99.90;;;;;;5134360;27;20027;-58
2023/07/14 11:11:14;;;;;;;2.40;1.65;;;33.60;99.90;;;;;;5134828;27;20487;-60
2023/07/14 11:14:03;;;;;;;2.33;1.27;;;34.10;99.90;;;;;;5134912;27;20490;-59
2023/07/14 11:16:48;;;;;;;2.67;1.58;;;34.40;99.90;;;;;;5135279;27;20019;-59
2023/07/14 11:19:45;;;;;;;2.78;1.30;;;34.90;99.90;;;;;;5114350;28;20108;-60
2023/07/14 11:22:14;;;;;;;8.27;2.20;;;34.60;99.90;;;;;;5114098;28;20024;-59
2023/07/14 11:25:09;;;;;;;2.45;1.70;;;34.40;99.90;;;;;;5134354;27;20046;-59
2023/07/14 11:27:57;;;;;;;3.33;1.70;;;35.00;99.90;;;;;;5123434;27;20093;-60
2023/07/14 11:30:34;;;;;;;1.80;1.30;;;35.40;99.90;;;;;;5133532;27;20072;-60
2023/07/14 11:33:21;;;;;;;2.28;1.40;;;35.50;99.90;;;;;;5134176;27;20023;-60
2023/07/14 11:35:55;;;;;;;3.40;1.80;;;35.20;99.90;;;;;;5134732;27;20075;-60
2023/07/14 11:38:51;;;;;;;3.70;1.33;;;35.40;99.20;;;;;;5134333;27;20027;-60
2023/07/14 11:41:18;;;;;;;2.60;1.60;;;35.70;99.90;;;;;;5134147;27;20432;-60
2023/07/14 11:43:45;;;;;;;1.77;1.10;;;35.40;98.40;;;;;;5134474;27;20424;-60
2023/07/14 11:46:17;;;;;;;2.28;1.35;;;35.90;99.20;;;;;;5133912;27;20031;-59
2023/07/14 11:49:03;;;;;;;1.50;1.20;;;36.20;98.80;;;;;;5134360;27;20475;-59
2023/07/14 11:51:51;;;;;;;4.78;1.60;;;35.90;97.90;;;;;;5134363;27;20438;-61
2023/07/14 11:54:37;;;;;;;2.03;1.50;;;36.20;98.40;;;;;;5134070;27;20501;-62
2023/07/14 11:57:07;;;;;;;3.70;1.35;;;36.40;98.50;;;;;;5134251;27;20466;-61
2023/07/14 11:59:35;;;;;;;4.22;3.03;;;36.00;98.10;;;;;;5132306;27;20030;-60
2023/07/14 12:02:43;;;;;;;3.40;1.70;;;35.90;98.20;;;;;;5131268;27;20470;-60
2023/07/14 12:05:15;;;;;;;2.00;1.70;;;35.30;97.60;;;;;;5109682;28;20027;-58
2023/07/14 12:08:05;;;;;;;2.40;1.30;;;35.70;98.30;;;;;;5110765;28;20040;-59
2023/07/14 12:10:41;;;;;;;2.08;1.45;;;35.70;97.80;;;;;;5111008;28;20050;-57
2023/07/14 12:13:19;;;;;;;1.90;1.38;;;35.00;97.00;;;;;;5110710;28;20035;-55
2023/07/14 12:15:56;;;;;;;4.20;1.48;;;33.80;96.90;;;;;;5110410;28;20023;-57
2023/07/14 12:18:22;;;;;;;3.28;1.50;;;34.60;97.90;;;;;;5109104;28;20035;-57
2023/07/14 12:20:50;;;;;;;1.20;1.10;;;34.00;97.40;;;;;;5104696;28;20127;-61
2023/07/14 12:23:29;;;;;;;3.35;1.70;;;34.10;97.30;;;;;;5090848;28;20173;-56
2023/07/14 12:26:07;;;;;;;2.45;1.30;;;33.70;96.90;;;;;;5106851;28;20495;-57
2023/07/14 12:28:36;;;;;;;3.38;1.35;;;33.30;97.70;;;;;;5108224;28;20465;-59
2023/07/14 12:31:06;;;;;;;4.47;1.20;;;33.00;98.30;;;;;;5111216;28;20027;-56
2023/07/14 12:33:32;;;;;;;1.98;1.20;;;33.40;98.80;;;;;;5111141;28;20123;-56
2023/07/14 12:36:02;;;;;;;2.53;1.63;;;34.00;98.10;;;;;;5111428;28;20104;-59
2023/07/14 12:38:28;;;;;;;1.73;1.53;;;34.60;97.70;;;;;;5117392;28;20149;-57
2023/07/14 12:40:55;;;;;;;1.58;1.25;;;35.10;97.70;;;;;;5133914;28;20050;-56
2023/07/14 12:43:30;;;;;;;2.50;1.30;;;35.20;97.80;;;;;;5133646;28;20031;-56
2023/07/14 12:45:58;;;;;;;2.47;1.38;;;35.40;98.00;;;;;;5133587;28;20035;-56
2023/07/14 12:48:31;;;;;;;2.60;1.33;;;35.80;96.70;;;;;;5133384;27;20035;-56
2023/07/14 12:50:58;;;;;;;2.00;1.42;;;35.50;96.00;;;;;;5135341;27;20038;-56
2023/07/14 12:53:31;;;;;;;3.00;1.77;;;35.70;96.10;;;;;;5137501;27;20398;-56
2023/07/14 12:56:05;;;;;;;2.65;1.50;;;35.70;96.90;;;;;;5137901;27;20426;-56
2023/07/14 12:58:31;;;;;;;2.60;1.45;;;35.70;96.20;;;;;;5137614;27;20112;-56
2023/07/14 13:00:57;;;;;;;2.28;1.85;;;35.10;96.90;;;;;;5137688;27;20023;-56
2023/07/14 13:03:24;;;;;;;5.28;1.98;;;34.40;97.30;;;;;;5137942;27;20080;-56
2023/07/14 13:05:51;;;;;;;3.40;1.70;;;34.40;97.90;;;;;;5137704;27;20047;-57
2023/07/14 13:08:26;;;;;;;1.63;1.30;;;34.60;97.40;;;;;;5137490;27;20107;-57
2023/07/14 13:10:53;;;;;;;2.42;1.65;;;34.70;97.10;;;;;;5137477;27;20068;-55
2023/07/14 13:13:40;;;;;;;3.33;1.70;;;34.70;97.00;;;;;;5137069;27;20463;-56
2023/07/14 13:16:09;;;;;;;2.10;1.70;;;34.40;97.00;;;;;;5137343;27;20030;-56
2023/07/14 13:18:37;;;;;;;1.85;1.40;;;34.40;97.30;;;;;;5137177;27;20027;-56
2023/07/14 13:21:24;;;;;;;2.13;1.35;;;34.60;97.20;;;;;;5136493;27;20037;-56
2023/07/14 13:23:55;;;;;;;1.92;1.63;;;34.20;96.70;;;;;;5116769;28;20027;-56